createdAt,value
2022-09-24T00:02:15.318Z,7.63
2022-09-24T00:04:43.968Z,7.30
2022-09-24T00:07:18.652Z,8.00
2022-09-24T00:09:43.137Z,8.50
2022-09-24T00:12:13.440Z,7.80
2022-09-24T00:14:42.179Z,8.27
2022-09-24T00:17:12.767Z,7.67
2022-09-24T00:19:44.524Z,7.63
2022-09-24T00:22:13.476Z,7.83
2022-09-24T00:25:00.050Z,8.20
2022-09-24T00:27:30.969Z,10.27
2022-09-24T00:30:02.482Z,7.97
2022-09-24T00:32:31.410Z,8.00
2022-09-24T00:35:00.069Z,8.37
2022-09-24T00:37:28.724Z,7.57
2022-09-24T00:39:57.400Z,8.03
2022-09-24T00:42:29.661Z,7.23
2022-09-24T00:44:58.381Z,7.90
2022-09-24T00:47:39.191Z,7.27
2022-09-24T00:50:11.022Z,7.50
2022-09-24T00:52:43.099Z,8.10
2022-09-24T00:55:16.711Z,7.13
2022-09-24T00:57:46.211Z,7.07
2022-09-24T01:00:16.117Z,6.83
2022-09-24T01:02:48.248Z,7.27
2022-09-24T01:05:17.284Z,7.23
2022-09-24T01:07:48.999Z,6.50
2022-09-24T01:10:22.180Z,7.53
2022-09-24T01:13:00.042Z,7.10
2022-09-24T01:15:36.607Z,7.10
2022-09-24T01:18:24.208Z,7.20
2022-09-24T01:20:56.203Z,7.27
2022-09-24T01:23:53.463Z,7.90
2022-09-24T01:26:33.782Z,7.10
2022-09-24T01:29:25.286Z,7.67
2022-09-24T01:32:18.806Z,7.63
2022-09-24T01:34:59.398Z,7.87
2022-09-24T01:37:32.447Z,7.90
2022-09-24T01:40:04.587Z,7.50
2022-09-24T01:42:35.228Z,7.77
2022-09-24T01:45:05.951Z,7.30
2022-09-24T01:47:39.143Z,7.27
2022-09-24T01:50:12.981Z,7.27
2022-09-24T01:52:56.386Z,7.67
2022-09-24T01:55:28.328Z,7.57
2022-09-24T01:58:06.260Z,7.30
2022-09-24T02:00:35.487Z,7.93
2022-09-24T02:03:19.100Z,7.90
2022-09-24T02:06:05.683Z,7.50
2022-09-24T02:08:40.349Z,7.47
2022-09-24T02:11:18.031Z,7.27
2022-09-24T02:14:01.634Z,8.17
2022-09-24T02:16:35.714Z,8.70
2022-09-24T02:19:12.213Z,9.33
2022-09-24T02:21:44.976Z,9.23
2022-09-24T02:24:33.704Z,10.13
2022-09-24T02:27:02.761Z,9.77
2022-09-24T02:29:31.436Z,9.70
2022-09-24T02:32:02.138Z,10.03
2022-09-24T02:34:33.791Z,9.70
2022-09-24T02:37:11.041Z,9.77
2022-09-24T02:39:43.218Z,10.63
2022-09-24T02:42:14.534Z,11.40
2022-09-24T02:44:43.272Z,10.60
2022-09-24T02:47:12.270Z,10.63
2022-09-24T02:49:41.337Z,10.83
2022-09-24T02:52:16.451Z,10.90
2022-09-24T02:54:51.376Z,10.70
2022-09-24T02:57:20.336Z,10.73
2022-09-24T02:59:49.309Z,11.17
2022-09-24T03:02:19.812Z,11.13
2022-09-24T03:04:51.647Z,10.60
2022-09-24T03:07:25.069Z,11.47
2022-09-24T03:09:54.001Z,11.33
2022-09-24T03:12:25.652Z,11.40
2022-09-24T03:14:54.471Z,11.00
2022-09-24T03:17:23.368Z,10.80
2022-09-24T03:19:55.010Z,11.80
2022-09-24T03:22:24.168Z,10.87
2022-09-24T03:24:56.948Z,11.07
2022-09-24T03:27:35.196Z,11.03
2022-09-24T03:30:21.819Z,10.87
2022-09-24T03:32:54.434Z,11.37
2022-09-24T03:35:30.556Z,12.13
2022-09-24T03:37:59.263Z,11.10
2022-09-24T03:40:30.134Z,11.70
2022-09-24T03:43:02.163Z,11.07
2022-09-24T03:45:33.968Z,11.87
2022-09-24T03:48:11.049Z,11.77
2022-09-24T03:50:40.975Z,11.87
2022-09-24T03:53:12.084Z,12.17
2022-09-24T03:56:04.952Z,11.73
2022-09-24T03:58:37.855Z,11.83
2022-09-24T04:01:11.315Z,11.13
2022-09-24T04:03:44.672Z,11.73
2022-09-24T04:06:14.915Z,11.17
2022-09-24T04:08:45.315Z,11.43
2022-09-24T04:11:17.223Z,11.47
2022-09-24T04:13:47.789Z,11.57
2022-09-24T04:16:16.935Z,11.83
2022-09-24T04:18:47.491Z,11.50
2022-09-24T04:21:17.862Z,11.33
2022-09-24T04:23:46.603Z,11.47
2022-09-24T04:26:15.565Z,12.27
2022-09-24T04:28:45.682Z,11.90
2022-09-24T04:31:14.326Z,11.70
2022-09-24T04:33:45.866Z,11.37
2022-09-24T04:36:14.614Z,11.97
2022-09-24T04:38:51.105Z,11.37
2022-09-24T04:41:19.878Z,11.57
2022-09-24T04:43:51.344Z,11.57
2022-09-24T04:46:27.642Z,10.93
2022-09-24T04:48:56.418Z,11.40
2022-09-24T04:51:27.536Z,10.37
2022-09-24T04:53:56.114Z,12.13
2022-09-24T04:56:24.847Z,12.03
2022-09-24T04:58:56.265Z,11.80
2022-09-24T05:01:26.980Z,12.20
2022-09-24T05:03:57.411Z,12.87
2022-09-24T05:06:29.716Z,12.10
2022-09-24T05:09:02.225Z,12.03
2022-09-24T05:11:32.244Z,12.37
2022-09-24T05:14:02.464Z,13.77
2022-09-24T05:16:31.853Z,14.53
2022-09-24T05:19:01.943Z,14.00
2022-09-24T05:21:32.472Z,13.30
2022-09-24T05:24:06.443Z,13.40
2022-09-24T05:26:56.350Z,12.30
2022-09-24T05:29:25.456Z,12.33
2022-09-24T05:31:57.627Z,12.07
2022-09-24T05:40:29.822Z,12.67
2022-09-24T05:43:29.107Z,12.40
2022-09-24T05:46:08.189Z,12.47
2022-09-24T05:48:50.477Z,13.50
2022-09-24T05:51:26.730Z,14.23
2022-09-24T05:56:11.408Z,12.23
2022-09-24T05:59:28.627Z,11.93
2022-09-24T06:01:57.682Z,12.23
2022-09-24T06:04:30.379Z,12.63
2022-09-24T06:06:59.347Z,12.30
2022-09-24T06:09:37.088Z,12.27
2022-09-24T06:12:23.763Z,12.17
2022-09-24T06:14:44.368Z,11.50
2022-09-24T06:17:13.507Z,10.83
2022-09-24T06:20:06.920Z,12.00
2022-09-24T06:22:29.470Z,11.23
2022-09-24T06:25:04.048Z,11.00
2022-09-24T06:27:33.681Z,11.10
2022-09-24T06:30:05.337Z,10.73
2022-09-24T06:32:43.443Z,12.53
2022-09-24T06:35:25.445Z,11.60
2022-09-24T06:38:08.557Z,12.03
2022-09-24T06:40:48.359Z,11.90
2022-09-24T06:43:27.064Z,12.07
2022-09-24T06:49:17.802Z,11.93
2022-09-24T06:52:02.922Z,11.33
2022-09-24T06:54:38.675Z,12.05
2022-09-24T06:57:29.452Z,10.27
2022-09-24T07:00:03.789Z,9.90
2022-09-24T07:02:34.484Z,9.80
2022-09-24T07:05:23.765Z,9.83
2022-09-24T07:07:58.551Z,9.00
2022-09-24T07:10:34.873Z,9.50
2022-09-24T07:13:06.466Z,8.60
2022-09-24T07:15:39.356Z,8.23
2022-09-24T07:18:16.508Z,7.80
2022-09-24T07:20:46.977Z,7.00
2022-09-24T07:23:18.703Z,8.35
2022-09-24T07:25:50.825Z,8.37
2022-09-24T07:28:30.716Z,7.30
2022-09-24T07:31:01.937Z,7.70
2022-09-24T07:33:32.911Z,7.92
2022-09-24T07:36:11.178Z,7.33
2022-09-24T07:38:42.945Z,7.72
2022-09-24T07:41:12.297Z,7.40
2022-09-24T07:43:43.663Z,7.08
2022-09-24T07:46:12.936Z,7.62
2022-09-24T07:48:45.876Z,8.13
2022-09-24T07:51:18.029Z,7.67
2022-09-24T07:53:52.644Z,7.33
2022-09-24T07:56:23.137Z,7.30
2022-09-24T07:58:53.578Z,7.40
2022-09-24T08:04:18.147Z,7.62
2022-09-24T08:06:47.818Z,8.03
2022-09-24T08:09:19.037Z,6.80
2022-09-24T08:11:50.094Z,7.17
2022-09-24T08:14:20.200Z,7.20
2022-09-24T08:16:49.127Z,7.60
2022-09-24T08:19:21.034Z,8.05
2022-09-24T08:21:49.929Z,7.05
2022-09-24T08:24:18.626Z,7.50
2022-09-24T08:26:47.255Z,8.25
2022-09-24T08:29:17.537Z,7.47
2022-09-24T08:31:47.417Z,8.38
2022-09-24T08:34:18.012Z,8.00
2022-09-24T08:36:49.394Z,7.85
2022-09-24T08:39:18.357Z,7.40
2022-09-24T08:41:55.472Z,7.33
2022-09-24T08:45:03.199Z,7.95
2022-09-24T08:47:55.424Z,8.45
2022-09-24T08:50:37.705Z,7.53
2022-09-24T08:53:24.680Z,7.80
2022-09-24T08:56:00.035Z,8.68
2022-09-24T08:58:44.651Z,9.03
2022-09-24T09:01:19.596Z,8.05
2022-09-24T09:04:25.002Z,8.68
2022-09-24T09:07:21.750Z,8.55
2022-09-24T09:10:05.623Z,8.35
2022-09-24T09:12:43.875Z,8.53
2022-09-24T09:15:18.336Z,8.85
2022-09-24T09:18:13.664Z,8.05
2022-09-24T09:20:45.741Z,8.45
2022-09-24T09:23:26.299Z,8.53
2022-09-24T09:26:01.689Z,8.45
2022-09-24T09:28:32.734Z,8.63
2022-09-24T09:31:08.482Z,8.50
2022-09-24T09:33:49.341Z,8.45
2022-09-24T09:36:26.294Z,7.87
2022-09-24T09:46:09.911Z,10.05
2022-09-24T09:48:44.606Z,8.98
2022-09-24T09:51:22.593Z,7.17
2022-09-24T09:53:59.960Z,6.70
2022-09-24T09:56:34.529Z,7.58
2022-09-24T09:59:08.722Z,6.97
2022-09-24T10:01:41.951Z,6.67
2022-09-24T10:04:36.743Z,6.15
2022-09-24T10:07:08.408Z,6.75
2022-09-24T10:09:49.506Z,13.68
2022-09-24T10:12:24.429Z,6.08
2022-09-24T10:15:02.296Z,5.17
2022-09-24T10:17:37.119Z,5.58
2022-09-24T10:20:32.584Z,4.40
2022-09-24T10:23:04.401Z,4.03
2022-09-24T10:25:36.528Z,4.95
2022-09-24T10:28:28.539Z,4.67
2022-09-24T10:31:00.357Z,4.67
2022-09-24T10:33:31.245Z,3.98
2022-09-24T10:36:18.235Z,4.25
2022-09-24T10:38:46.891Z,4.62
2022-09-24T10:41:30.617Z,4.35
2022-09-24T10:44:08.198Z,3.83
2022-09-24T10:46:59.855Z,3.80
2022-09-24T10:49:49.656Z,3.62
2022-09-24T10:52:40.638Z,2.67
2022-09-24T10:55:22.778Z,4.22
2022-09-24T10:58:12.293Z,3.65
2022-09-24T11:00:53.109Z,2.90
2022-09-24T11:03:47.138Z,1.80
2022-09-24T11:06:38.566Z,2.22
2022-09-24T11:09:22.179Z,4.65
2022-09-24T11:12:16.513Z,2.20
2022-09-24T11:15:15.340Z,2.72
2022-09-24T11:18:13.905Z,1.72
2022-09-24T11:20:54.597Z,2.20
2022-09-24T11:23:38.194Z,2.08
2022-09-24T11:26:18.667Z,2.47
2022-09-24T11:28:50.297Z,2.17
2022-09-24T11:31:43.178Z,3.15
2022-09-24T11:34:32.928Z,4.65
2022-09-24T11:37:10.460Z,2.27
2022-09-24T11:40:07.872Z,1.95
2022-09-24T11:42:39.710Z,2.65
2022-09-24T11:45:17.436Z,2.17
2022-09-24T11:48:07.098Z,2.40
2022-09-24T11:50:55.304Z,2.10
2022-09-24T11:53:48.291Z,2.27
2022-09-24T11:56:46.693Z,1.80
2022-09-24T11:59:33.460Z,2.05
2022-09-24T12:02:18.441Z,1.70
2022-09-24T12:05:08.445Z,2.02
2022-09-24T12:08:04.927Z,1.90
2022-09-24T12:10:37.450Z,2.42
2022-09-24T12:13:24.179Z,1.75
2022-09-24T12:16:01.756Z,2.25
2022-09-24T12:18:42.668Z,2.20
2022-09-24T12:21:30.994Z,2.55
2022-09-24T12:24:03.245Z,1.40
2022-09-24T12:26:41.639Z,1.72
2022-09-24T12:30:02.028Z,1.85
2022-09-24T12:32:54.775Z,1.72
2022-09-24T12:35:35.498Z,2.17
2022-09-24T12:38:16.258Z,1.70
2022-09-24T12:41:03.218Z,1.70
2022-09-24T12:43:37.911Z,1.87
2022-09-24T12:46:11.840Z,1.80
2022-09-24T12:48:41.275Z,1.80
2022-09-24T12:51:12.403Z,1.80
2022-09-24T12:53:46.562Z,1.72
2022-09-24T12:56:18.202Z,1.70
2022-09-24T12:58:48.765Z,1.80
2022-09-24T13:01:32.762Z,2.00
2022-09-24T13:04:27.559Z,2.22
2022-09-24T13:06:56.469Z,1.85
2022-09-24T13:09:40.323Z,1.80
2022-09-24T13:12:24.540Z,1.77
2022-09-24T13:15:06.696Z,2.00
2022-09-24T13:17:41.050Z,2.35
2022-09-24T13:20:12.696Z,1.62
2022-09-24T13:22:41.490Z,2.72
2022-09-24T13:25:13.178Z,1.92
2022-09-24T13:27:46.403Z,1.87
2022-09-24T13:30:39.079Z,1.92
2022-09-24T13:33:29.797Z,2.15
2022-09-24T13:36:07.598Z,2.30
2022-09-24T13:38:42.074Z,2.05
2022-09-24T13:41:28.869Z,1.57
2022-09-24T13:44:01.542Z,3.20
2022-09-24T13:46:33.034Z,1.65
2022-09-24T13:49:09.735Z,2.20
2022-09-24T13:51:41.485Z,2.10
2022-09-24T13:54:16.466Z,1.70
2022-09-24T13:57:00.199Z,2.02
2022-09-24T13:59:31.841Z,1.98
2022-09-24T14:02:02.081Z,2.25
2022-09-24T14:04:31.660Z,1.85
2022-09-24T14:07:03.522Z,2.30
2022-09-24T14:09:37.263Z,1.70
2022-09-24T14:12:19.315Z,2.05
2022-09-24T14:14:54.356Z,2.27
2022-09-24T14:17:34.866Z,2.00
2022-09-24T14:20:06.246Z,2.30
2022-09-24T14:22:45.734Z,2.10
2022-09-24T14:25:40.037Z,1.90
2022-09-24T14:28:08.946Z,2.60
2022-09-24T14:30:40.860Z,2.87
2022-09-24T14:33:12.651Z,2.15
2022-09-24T14:35:47.420Z,2.50
2022-09-24T14:38:29.530Z,2.00
2022-09-24T14:41:10.129Z,3.42
2022-09-24T14:43:47.444Z,2.52
2022-09-24T14:46:24.703Z,2.70
2022-09-24T14:48:53.437Z,1.75
2022-09-24T14:51:30.605Z,2.40
2022-09-24T14:54:19.795Z,2.12
2022-09-24T14:56:50.063Z,2.33
2022-09-24T14:59:27.448Z,2.00
2022-09-24T15:02:23.319Z,2.37
2022-09-24T15:05:01.878Z,2.30
2022-09-24T15:07:35.027Z,2.10
2022-09-24T15:10:08.658Z,2.45
2022-09-24T15:12:42.444Z,2.27
2022-09-24T15:15:25.918Z,2.15
2022-09-24T15:18:03.154Z,2.33
2022-09-24T15:20:46.814Z,2.10
2022-09-24T15:23:15.615Z,2.80
2022-09-24T15:25:53.387Z,2.20
2022-09-24T15:28:41.427Z,3.22
2022-09-24T15:31:16.359Z,2.35
2022-09-24T15:33:46.387Z,2.33
2022-09-24T15:36:18.566Z,3.33
2022-09-24T15:38:50.509Z,3.05
2022-09-24T15:47:31.130Z,2.47
2022-09-24T15:50:19.314Z,2.42
2022-09-24T15:52:53.827Z,2.47
2022-09-24T15:55:24.401Z,3.05
2022-09-24T15:57:53.165Z,2.67
2022-09-24T16:00:35.193Z,2.72
2022-09-24T16:04:29.764Z,3.15
2022-09-24T16:06:42.064Z,3.20
2022-09-24T16:09:17.952Z,3.42
2022-09-24T16:11:38.302Z,3.05
2022-09-24T16:14:08.744Z,3.55
2022-09-24T16:16:41.866Z,4.00
2022-09-24T16:19:11.043Z,3.37
2022-09-24T16:21:41.607Z,3.22
2022-09-24T16:24:10.677Z,3.22
2022-09-24T16:26:39.451Z,4.47
2022-09-24T16:29:14.126Z,5.75
2022-09-24T16:31:44.405Z,5.30
2022-09-24T16:34:16.764Z,5.87
2022-09-24T16:36:45.336Z,5.58
2022-09-24T16:39:15.971Z,4.95
2022-09-24T16:41:46.885Z,5.62
2022-09-24T16:44:15.712Z,4.55
2022-09-24T16:46:45.947Z,5.08
2022-09-24T16:49:14.910Z,4.67
2022-09-24T16:51:46.567Z,4.95
2022-09-24T16:54:15.476Z,5.58
2022-09-24T16:56:49.094Z,5.78
2022-09-24T16:59:20.097Z,5.65
2022-09-24T17:01:48.840Z,5.42
2022-09-24T17:04:19.520Z,5.70
2022-09-24T17:06:51.313Z,6.00
2022-09-24T17:09:37.853Z,7.15
2022-09-24T17:12:07.672Z,6.75
2022-09-24T17:14:38.599Z,7.15
2022-09-24T17:17:07.933Z,6.37
2022-09-24T17:19:36.542Z,6.28
2022-09-24T17:22:06.186Z,7.20
2022-09-24T17:24:36.444Z,6.33
2022-09-24T17:27:08.249Z,7.00
2022-09-24T17:29:37.327Z,6.85
2022-09-24T17:32:06.016Z,6.50
2022-09-24T17:34:34.720Z,7.12
2022-09-24T17:37:15.380Z,6.72
2022-09-24T17:39:44.011Z,7.50
2022-09-24T17:42:13.277Z,7.08
2022-09-24T17:44:44.526Z,7.37
2022-09-24T17:47:15.821Z,7.05
2022-09-24T17:49:47.417Z,7.25
2022-09-24T17:52:20.621Z,8.25
2022-09-24T17:54:56.778Z,8.03
2022-09-24T17:57:31.669Z,7.30
2022-09-24T18:00:00.422Z,9.00
2022-09-24T18:02:29.119Z,9.73
2022-09-24T18:04:57.762Z,7.70
2022-09-24T18:07:28.038Z,8.35
2022-09-24T18:09:56.744Z,9.35
2022-09-24T18:12:25.553Z,7.90
2022-09-24T18:14:56.821Z,7.25
2022-09-24T18:17:25.556Z,6.22
2022-09-24T18:20:04.073Z,6.67
2022-09-24T18:22:32.956Z,6.92
2022-09-24T18:25:05.743Z,7.30
2022-09-24T18:27:36.211Z,7.40
2022-09-24T18:30:07.622Z,7.25
2022-09-24T18:32:37.283Z,7.20
2022-09-24T18:35:11.224Z,6.95
2022-09-24T18:37:43.043Z,7.53
2022-09-24T18:40:12.442Z,7.33
2022-09-24T18:42:42.767Z,7.15
2022-09-24T18:45:11.855Z,7.45
2022-09-24T18:47:43.300Z,7.58
2022-09-24T18:50:14.528Z,7.45
2022-09-24T18:52:45.185Z,8.23
2022-09-24T18:55:16.687Z,8.68
2022-09-24T18:57:47.126Z,6.92
2022-09-24T19:00:19.707Z,8.38
2022-09-24T19:02:48.981Z,8.15
2022-09-24T19:05:17.889Z,7.97
2022-09-24T19:07:49.714Z,8.90
2022-09-24T19:10:18.506Z,8.65
2022-09-24T19:12:47.192Z,8.90
2022-09-24T19:15:23.304Z,9.13
2022-09-24T19:17:54.002Z,9.30
2022-09-24T19:20:27.397Z,8.48
2022-09-24T19:22:57.752Z,8.48
2022-09-24T19:25:29.460Z,10.13
2022-09-24T19:27:58.439Z,9.88
2022-09-24T19:30:27.821Z,11.03
2022-09-24T19:33:01.314Z,10.32
2022-09-24T19:35:33.446Z,9.85
2022-09-24T19:38:04.131Z,9.75
2022-09-24T19:40:34.855Z,10.20
2022-09-24T19:43:03.800Z,9.73
2022-09-24T19:45:35.113Z,10.13
2022-09-24T19:48:10.492Z,9.65
2022-09-24T19:50:47.693Z,10.20
2022-09-24T19:53:17.007Z,9.88
2022-09-24T19:55:51.335Z,10.48
2022-09-24T19:58:21.790Z,10.30
2022-09-24T20:00:52.716Z,10.40
2022-09-24T20:03:22.253Z,10.58
2022-09-24T20:06:18.509Z,10.43
2022-09-24T20:08:39.698Z,10.20
2022-09-24T20:11:11.238Z,11.28
2022-09-24T20:13:43.538Z,35.08
2022-09-24T20:16:14.713Z,13.28
2022-09-24T20:18:49.537Z,11.15
2022-09-24T20:21:40.393Z,9.60
2022-09-24T20:24:16.380Z,8.98
2022-09-24T20:27:06.260Z,9.48
2022-09-24T20:29:37.759Z,9.45
2022-09-24T20:32:09.232Z,10.53
2022-09-24T20:34:43.345Z,10.95
2022-09-24T20:37:15.061Z,10.20
2022-09-24T20:39:48.276Z,10.65
2022-09-24T20:42:17.207Z,9.75
2022-09-24T20:44:50.329Z,10.43
2022-09-24T20:47:19.126Z,10.72
2022-09-24T20:49:50.692Z,9.95
2022-09-24T20:52:23.081Z,10.00
2022-09-24T20:54:52.870Z,8.93
2022-09-24T20:57:26.196Z,9.73
2022-09-24T20:59:59.398Z,10.88
2022-09-24T21:02:44.098Z,9.58
2022-09-24T21:05:18.385Z,10.08
2022-09-24T21:07:56.163Z,9.63
2022-09-24T21:10:29.582Z,9.40
2022-09-24T21:13:03.926Z,8.70
2022-09-24T21:15:33.167Z,9.28
2022-09-24T21:18:22.849Z,8.60
2022-09-24T21:20:42.998Z,8.40
2022-09-24T21:23:13.799Z,9.70
2022-09-24T21:25:54.347Z,8.83
2022-09-24T21:28:17.287Z,8.88
2022-09-24T21:30:47.490Z,9.13
2022-09-24T21:33:18.506Z,9.37
2022-09-24T21:35:53.345Z,8.45
2022-09-24T21:38:26.627Z,9.27
2022-09-24T21:41:02.589Z,9.43
2022-09-24T21:43:38.749Z,9.05
2022-09-24T21:49:10.857Z,8.60
2022-09-24T21:51:43.586Z,9.37
2022-09-24T21:54:16.535Z,9.03
2022-09-24T21:56:46.696Z,9.40
2022-09-24T21:59:34.061Z,9.10
2022-09-24T22:02:03.497Z,9.30
2022-09-24T22:04:36.348Z,9.60
2022-09-24T22:07:05.537Z,10.03
2022-09-24T22:09:34.886Z,9.10
2022-09-24T22:12:04.739Z,8.55
2022-09-24T22:14:35.043Z,9.00
2022-09-24T22:17:06.224Z,8.70
2022-09-24T22:19:36.893Z,8.85
2022-09-24T22:22:06.791Z,9.23
2022-09-24T22:24:37.025Z,8.87
2022-09-24T22:27:05.567Z,8.87
2022-09-24T22:29:34.182Z,9.63
2022-09-24T22:32:03.684Z,8.97
2022-09-24T22:34:49.885Z,8.43
2022-09-24T22:37:22.643Z,8.53
2022-09-24T22:39:51.479Z,8.93
2022-09-24T22:42:20.138Z,8.97
2022-09-24T22:44:48.721Z,8.17
2022-09-24T22:47:18.177Z,8.53
2022-09-24T22:49:46.824Z,8.63
2022-09-24T22:52:16.656Z,8.57
2022-09-24T22:54:45.382Z,8.27
2022-09-24T22:57:14.091Z,8.30
2022-09-24T22:59:44.853Z,9.40
2022-09-24T23:02:17.015Z,8.53
2022-09-24T23:04:51.627Z,8.10
2022-09-24T23:07:21.115Z,8.40
2022-09-24T23:09:52.214Z,8.20
2022-09-24T23:12:26.488Z,8.50
2022-09-24T23:14:55.783Z,8.30
2022-09-24T23:17:27.364Z,9.10
2022-09-24T23:19:56.716Z,8.80
2022-09-24T23:22:25.651Z,8.40
2022-09-24T23:24:57.605Z,8.87
2022-09-24T23:27:26.782Z,9.10
2022-09-24T23:29:57.241Z,8.37
2022-09-24T23:32:27.699Z,9.30
2022-09-24T23:34:56.585Z,9.40
2022-09-24T23:37:29.830Z,9.07
2022-09-24T23:39:58.651Z,9.10
2022-09-24T23:42:32.556Z,9.43
2022-09-24T23:45:06.740Z,9.73
2022-09-24T23:47:40.038Z,8.87
2022-09-24T23:50:09.358Z,9.23
2022-09-24T23:52:38.301Z,8.50
2022-09-24T23:55:22.167Z,8.73
2022-09-24T23:57:51.160Z,8.53
